createdAt,value
2022-09-25T00:00:54.675Z,10.28
2022-09-25T00:03:25.338Z,10.30
2022-09-25T00:05:53.526Z,10.18
2022-09-25T00:08:20.780Z,10.26
2022-09-25T00:10:51.089Z,10.24
2022-09-25T00:13:20.307Z,10.20
2022-09-25T00:15:49.604Z,10.19
2022-09-25T00:18:38.000Z,10.09
2022-09-25T00:21:06.229Z,9.98
2022-09-25T00:23:34.539Z,9.89
2022-09-25T00:26:02.852Z,9.91
2022-09-25T00:28:31.928Z,9.96
2022-09-25T00:30:59.955Z,10.01
2022-09-25T00:33:27.925Z,10.10
2022-09-25T00:35:55.011Z,10.04
2022-09-25T00:38:22.113Z,10.13
2022-09-25T00:40:49.398Z,10.19
2022-09-25T00:43:33.488Z,10.24
2022-09-25T00:46:03.494Z,10.21
2022-09-25T00:48:31.274Z,10.19
2022-09-25T00:51:00.135Z,10.15
2022-09-25T00:53:33.290Z,10.15
2022-09-25T00:56:03.049Z,10.20
2022-09-25T00:58:33.323Z,10.28
2022-09-25T01:01:01.073Z,10.28
2022-09-25T01:03:28.649Z,10.25
2022-09-25T01:05:57.791Z,10.32
2022-09-25T01:08:27.869Z,10.23
2022-09-25T01:10:55.726Z,10.17
2022-09-25T01:13:23.763Z,10.24
2022-09-25T01:15:59.451Z,10.24
2022-09-25T01:18:47.315Z,10.20
2022-09-25T01:21:34.298Z,10.19
2022-09-25T01:24:19.080Z,10.26
2022-09-25T01:27:10.123Z,10.27
2022-09-25T01:30:10.168Z,10.23
2022-09-25T01:32:46.999Z,10.19
2022-09-25T01:35:26.693Z,10.14
2022-09-25T01:38:00.133Z,10.18
2022-09-25T01:41:02.467Z,10.17
2022-09-25T01:43:40.574Z,10.16
2022-09-25T01:46:17.077Z,10.11
2022-09-25T01:48:49.695Z,10.14
2022-09-25T01:51:22.074Z,10.14
2022-09-25T01:53:55.198Z,10.24
2022-09-25T01:56:33.782Z,10.23
2022-09-25T01:59:17.687Z,10.26
2022-09-25T02:01:47.892Z,10.19
2022-09-25T02:04:22.850Z,10.25
2022-09-25T02:06:51.861Z,10.22
2022-09-25T02:09:33.358Z,10.11
2022-09-25T02:12:07.526Z,10.17
2022-09-25T02:14:46.654Z,10.16
2022-09-25T02:17:41.824Z,10.19
2022-09-25T02:20:28.679Z,10.25
2022-09-25T02:23:05.029Z,10.15
2022-09-25T02:25:42.797Z,10.14
2022-09-25T02:28:10.313Z,10.20
2022-09-25T02:30:37.651Z,10.22
2022-09-25T02:33:04.995Z,10.24
2022-09-25T02:35:32.711Z,10.11
2022-09-25T02:38:00.216Z,10.14
2022-09-25T02:40:53.992Z,10.08
2022-09-25T02:43:26.949Z,10.05
2022-09-25T02:46:12.381Z,10.03
2022-09-25T02:48:57.344Z,9.96
2022-09-25T02:51:37.477Z,10.04
2022-09-25T02:54:12.748Z,10.02
2022-09-25T02:57:04.102Z,9.99
2022-09-25T02:59:40.349Z,10.00
2022-09-25T03:02:10.291Z,10.00
2022-09-25T03:04:39.118Z,9.96
2022-09-25T03:07:07.386Z,9.96
2022-09-25T03:09:36.932Z,9.92
2022-09-25T03:12:05.217Z,9.95
2022-09-25T03:14:32.681Z,9.91
2022-09-25T03:17:05.551Z,9.89
2022-09-25T03:19:34.847Z,9.92
2022-09-25T03:22:03.077Z,9.96
2022-09-25T03:24:31.106Z,9.98
2022-09-25T03:26:58.780Z,10.10
2022-09-25T03:29:26.129Z,10.07
2022-09-25T03:31:53.338Z,10.07
2022-09-25T03:34:21.216Z,10.16
2022-09-25T03:36:48.462Z,10.09
2022-09-25T03:39:18.012Z,10.13
2022-09-25T03:41:45.720Z,10.12
2022-09-25T03:44:13.136Z,10.05
2022-09-25T03:46:40.532Z,9.99
2022-09-25T03:49:07.724Z,10.04
2022-09-25T03:51:35.228Z,10.02
2022-09-25T03:54:04.276Z,9.98
2022-09-25T03:56:32.901Z,9.91
2022-09-25T03:59:00.251Z,9.86
2022-09-25T04:01:28.660Z,9.79
2022-09-25T04:03:56.060Z,9.84
2022-09-25T04:06:26.543Z,9.83
2022-09-25T04:08:54.378Z,9.77
2022-09-25T04:11:24.431Z,9.78
2022-09-25T04:13:52.743Z,9.88
2022-09-25T04:16:23.516Z,9.95
2022-09-25T04:18:51.384Z,9.99
2022-09-25T04:21:18.675Z,9.98
2022-09-25T04:24:05.766Z,9.98
2022-09-25T04:26:33.045Z,9.97
2022-09-25T04:29:03.891Z,10.06
2022-09-25T04:31:31.976Z,10.03
2022-09-25T04:33:59.321Z,10.05
2022-09-25T04:36:26.497Z,10.05
2022-09-25T04:38:53.692Z,10.02
2022-09-25T04:41:22.127Z,9.97
2022-09-25T04:43:49.317Z,10.02
2022-09-25T04:46:21.944Z,9.97
2022-09-25T04:48:50.086Z,10.07
2022-09-25T04:51:20.589Z,10.05
2022-09-25T04:53:48.159Z,10.03
2022-09-25T04:56:16.590Z,9.96
2022-09-25T04:58:48.882Z,9.96
2022-09-25T05:01:19.026Z,9.96
2022-09-25T05:03:53.942Z,9.89
2022-09-25T05:06:22.810Z,9.86
2022-09-25T05:08:50.233Z,9.81
2022-09-25T05:11:17.983Z,9.83
2022-09-25T05:13:48.968Z,9.81
2022-09-25T05:16:16.485Z,9.84
2022-09-25T05:18:45.874Z,9.93
2022-09-25T05:21:13.066Z,9.98
2022-09-25T05:23:40.238Z,9.95
2022-09-25T05:26:07.517Z,9.95
2022-09-25T05:28:34.681Z,9.98
2022-09-25T05:31:03.895Z,10.02
2022-09-25T05:33:32.527Z,10.02
2022-09-25T05:36:04.729Z,10.04
2022-09-25T05:38:33.589Z,10.09
2022-09-25T05:41:04.452Z,10.08
2022-09-25T05:43:32.602Z,10.19
2022-09-25T05:46:00.420Z,10.37
2022-09-25T05:48:27.824Z,10.42
2022-09-25T05:50:56.581Z,10.50
2022-09-25T05:53:24.545Z,10.49
2022-09-25T05:55:52.409Z,10.50
2022-09-25T05:58:19.576Z,10.45
2022-09-25T06:00:46.683Z,10.53
2022-09-25T06:03:14.998Z,10.59
2022-09-25T06:05:42.683Z,10.58
2022-09-25T06:08:09.862Z,10.50
2022-09-25T06:10:36.993Z,10.52
2022-09-25T06:13:07.245Z,10.57
2022-09-25T06:15:39.363Z,10.64
2022-09-25T06:18:08.545Z,10.64
2022-09-25T06:20:36.332Z,10.63
2022-09-25T06:23:03.796Z,10.65
2022-09-25T06:25:37.037Z,10.65
2022-09-25T06:28:04.793Z,10.72
2022-09-25T06:30:36.548Z,10.65
2022-09-25T06:33:09.661Z,10.70
2022-09-25T06:35:42.356Z,10.69
2022-09-25T06:38:09.970Z,10.69
2022-09-25T06:40:41.609Z,10.64
2022-09-25T06:43:16.181Z,10.75
2022-09-25T06:45:43.936Z,10.77
2022-09-25T06:48:13.830Z,10.72
2022-09-25T06:50:42.884Z,10.72
2022-09-25T06:53:11.385Z,10.85
2022-09-25T06:55:40.480Z,10.84
2022-09-25T06:58:11.287Z,10.86
2022-09-25T07:00:38.634Z,10.95
2022-09-25T07:03:24.290Z,11.19
2022-09-25T07:05:52.212Z,11.33
2022-09-25T07:08:21.180Z,11.31
2022-09-25T07:10:54.195Z,11.37
2022-09-25T07:13:27.687Z,11.39
2022-09-25T07:15:57.727Z,11.38
2022-09-25T07:18:26.464Z,11.41
2022-09-25T07:20:54.561Z,11.49
2022-09-25T07:23:22.671Z,11.61
2022-09-25T07:25:50.543Z,11.67
2022-09-25T07:28:20.152Z,11.68
2022-09-25T07:30:49.493Z,11.70
2022-09-25T07:33:17.049Z,11.83
2022-09-25T07:35:44.471Z,12.02
2022-09-25T07:38:11.634Z,12.16
2022-09-25T07:40:39.108Z,12.33
2022-09-25T07:43:06.315Z,12.53
2022-09-25T07:45:33.513Z,12.76
2022-09-25T07:48:02.626Z,12.98
2022-09-25T07:50:31.790Z,13.39
2022-09-25T07:52:59.371Z,13.81
2022-09-25T07:55:28.637Z,14.21
2022-09-25T07:57:58.861Z,14.73
2022-09-25T08:00:26.297Z,15.09
2022-09-25T08:02:59.468Z,15.19
2022-09-25T08:05:27.463Z,15.45
2022-09-25T08:07:54.933Z,15.24
2022-09-25T08:10:22.427Z,15.07
2022-09-25T08:12:50.131Z,14.89
2022-09-25T08:15:17.498Z,14.78
2022-09-25T08:17:44.622Z,14.82
2022-09-25T08:20:11.866Z,14.66
2022-09-25T08:22:39.133Z,14.63
2022-09-25T08:25:06.711Z,14.63
2022-09-25T08:27:41.096Z,14.66
2022-09-25T08:30:10.205Z,14.65
2022-09-25T08:32:37.493Z,14.77
2022-09-25T08:35:05.152Z,14.97
2022-09-25T08:37:35.365Z,15.12
2022-09-25T08:40:02.517Z,15.17
2022-09-25T08:42:36.145Z,15.36
2022-09-25T08:45:30.764Z,15.48
2022-09-25T08:48:18.940Z,15.55
2022-09-25T08:50:46.035Z,15.67
2022-09-25T08:53:24.347Z,15.80
2022-09-25T08:56:12.159Z,15.79
2022-09-25T08:58:42.674Z,15.87
2022-09-25T09:01:17.370Z,16.13
2022-09-25T09:03:53.998Z,16.20
2022-09-25T09:06:23.288Z,16.29
2022-09-25T09:09:02.068Z,16.44
2022-09-25T09:11:36.953Z,16.52
2022-09-25T09:14:13.160Z,16.76
2022-09-25T09:16:48.432Z,16.76
2022-09-25T09:19:15.839Z,16.73
2022-09-25T09:22:00.859Z,16.76
2022-09-25T09:24:55.435Z,16.91
2022-09-25T09:27:34.463Z,17.11
2022-09-25T09:30:10.771Z,17.23
2022-09-25T09:32:55.170Z,17.19
2022-09-25T09:35:44.130Z,17.24
2022-09-25T09:38:21.859Z,17.33
2022-09-25T09:40:49.310Z,17.36
2022-09-25T09:43:33.545Z,17.40
2022-09-25T09:46:11.185Z,17.51
2022-09-25T09:48:56.784Z,17.58
2022-09-25T09:51:33.067Z,17.66
2022-09-25T09:54:07.483Z,17.50
2022-09-25T09:56:35.958Z,17.39
2022-09-25T09:59:14.986Z,17.39
2022-09-25T10:01:45.197Z,17.38
2022-09-25T10:04:17.401Z,17.42
2022-09-25T10:06:52.507Z,17.47
2022-09-25T10:09:19.841Z,17.50
2022-09-25T10:11:53.827Z,17.68
2022-09-25T10:14:26.559Z,17.85
2022-09-25T10:16:53.911Z,18.08
2022-09-25T10:19:24.187Z,17.99
2022-09-25T10:22:05.292Z,18.22
2022-09-25T10:24:54.914Z,18.21
2022-09-25T10:27:36.732Z,17.84
2022-09-25T10:30:10.111Z,17.90
2022-09-25T10:32:58.392Z,18.12
2022-09-25T10:35:42.478Z,18.24
2022-09-25T10:38:48.410Z,18.43
2022-09-25T10:41:21.392Z,18.43
2022-09-25T10:43:54.023Z,18.33
2022-09-25T10:46:54.671Z,18.32
2022-09-25T10:49:45.636Z,18.44
2022-09-25T10:52:14.791Z,18.63
2022-09-25T10:54:45.647Z,18.79
2022-09-25T10:57:38.615Z,18.75
2022-09-25T11:00:24.360Z,18.78
2022-09-25T11:02:56.502Z,18.85
2022-09-25T11:05:30.567Z,19.05
2022-09-25T11:08:00.388Z,18.95
2022-09-25T11:10:31.707Z,18.92
2022-09-25T11:12:59.358Z,18.91
2022-09-25T11:15:27.701Z,18.75
2022-09-25T11:17:56.953Z,18.53
2022-09-25T11:20:31.216Z,18.42
2022-09-25T11:23:09.093Z,18.26
2022-09-25T11:25:59.813Z,17.94
2022-09-25T11:28:44.458Z,17.56
2022-09-25T11:31:33.048Z,17.50
2022-09-25T11:34:40.814Z,17.36
2022-09-25T11:37:18.422Z,17.35
2022-09-25T11:40:08.277Z,17.56
2022-09-25T11:42:45.565Z,17.70
2022-09-25T11:45:36.555Z,17.77
2022-09-25T11:48:12.991Z,17.83
2022-09-25T11:51:29.203Z,17.91
2022-09-25T11:54:32.060Z,17.92
2022-09-25T11:57:04.190Z,17.71
2022-09-25T11:59:53.211Z,17.53
2022-09-25T12:02:41.056Z,17.36
2022-09-25T12:05:32.607Z,17.47
2022-09-25T12:08:08.585Z,17.41
2022-09-25T12:10:56.976Z,17.23
2022-09-25T12:13:24.102Z,17.15
2022-09-25T12:16:06.066Z,17.17
2022-09-25T12:18:47.807Z,17.33
2022-09-25T12:21:32.514Z,17.31
2022-09-25T12:24:40.204Z,17.25
2022-09-25T12:27:49.382Z,17.23
2022-09-25T12:30:23.445Z,17.25
2022-09-25T12:32:53.802Z,17.22
2022-09-25T12:35:57.660Z,17.24
2022-09-25T12:38:38.240Z,17.24
2022-09-25T12:41:29.916Z,17.22
2022-09-25T12:44:04.623Z,17.09
2022-09-25T12:47:22.459Z,17.02
2022-09-25T12:49:53.801Z,17.26
2022-09-25T12:52:27.507Z,17.16
2022-09-25T12:54:57.734Z,17.06
2022-09-25T12:57:32.921Z,16.93
2022-09-25T13:00:20.317Z,16.99
2022-09-25T13:02:58.779Z,17.01
2022-09-25T13:05:47.525Z,16.89
2022-09-25T13:08:39.706Z,17.06
2022-09-25T13:11:15.922Z,17.20
2022-09-25T13:13:48.945Z,17.20
2022-09-25T13:16:16.946Z,16.93
2022-09-25T13:18:48.990Z,16.84
2022-09-25T13:21:23.794Z,16.79
2022-09-25T13:23:53.788Z,16.66
2022-09-25T13:26:30.283Z,16.58
2022-09-25T13:29:01.048Z,16.56
2022-09-25T13:31:34.369Z,16.49
2022-09-25T13:34:01.675Z,16.41
2022-09-25T13:36:37.660Z,16.35
2022-09-25T13:39:45.862Z,16.35
2022-09-25T13:42:37.921Z,16.37
2022-09-25T13:45:30.159Z,16.42
2022-09-25T13:48:06.043Z,16.33
2022-09-25T13:50:42.857Z,16.25
2022-09-25T13:53:20.334Z,16.31
2022-09-25T13:55:50.292Z,16.28
2022-09-25T13:58:23.293Z,16.32
2022-09-25T14:00:57.728Z,16.44
2022-09-25T14:03:37.199Z,16.69
2022-09-25T14:06:05.310Z,16.87
2022-09-25T14:08:34.721Z,16.73
2022-09-25T14:11:07.756Z,16.67
2022-09-25T14:13:35.392Z,16.63
2022-09-25T14:16:08.057Z,16.58
2022-09-25T14:18:41.043Z,16.58
2022-09-25T14:21:09.871Z,16.57
2022-09-25T14:23:54.778Z,16.63
2022-09-25T14:26:29.054Z,16.70
2022-09-25T14:28:58.041Z,16.76
2022-09-25T14:31:40.091Z,16.74
2022-09-25T14:34:44.790Z,16.75
2022-09-25T14:37:39.520Z,16.65
2022-09-25T14:40:33.961Z,16.72
2022-09-25T14:43:27.470Z,16.85
2022-09-25T14:46:20.181Z,16.99
2022-09-25T14:48:54.725Z,17.12
2022-09-25T14:51:26.032Z,17.25
2022-09-25T14:54:05.090Z,17.38
2022-09-25T14:56:35.541Z,17.53
2022-09-25T14:59:10.275Z,17.64
2022-09-25T15:01:46.801Z,17.45
2022-09-25T15:04:32.477Z,17.32
2022-09-25T15:07:13.909Z,17.10
2022-09-25T15:09:49.643Z,17.00
2022-09-25T15:12:18.791Z,17.22
2022-09-25T15:15:14.790Z,17.21
2022-09-25T15:17:49.818Z,17.36
2022-09-25T15:20:20.914Z,17.25
2022-09-25T15:22:59.803Z,17.19
2022-09-25T15:25:54.001Z,17.12
2022-09-25T15:28:25.422Z,17.20
2022-09-25T15:30:58.887Z,17.24
2022-09-25T15:33:29.306Z,17.17
2022-09-25T15:35:59.351Z,17.02
2022-09-25T15:38:35.450Z,16.94
2022-09-25T15:41:06.357Z,16.95
2022-09-25T15:43:33.863Z,16.93
2022-09-25T15:46:11.303Z,16.88
2022-09-25T15:49:54.408Z,16.85
2022-09-25T15:52:21.901Z,16.84
2022-09-25T15:54:49.327Z,16.78
2022-09-25T15:57:26.193Z,16.73
2022-09-25T16:00:12.981Z,16.55
2022-09-25T16:03:09.376Z,16.47
2022-09-25T16:05:44.014Z,16.29
2022-09-25T16:08:29.491Z,16.19
2022-09-25T16:11:23.810Z,16.02
2022-09-25T16:14:11.222Z,15.87
2022-09-25T16:16:49.781Z,15.85
2022-09-25T16:20:32.634Z,15.69
2022-09-25T16:23:19.248Z,15.61
2022-09-25T16:25:46.607Z,15.53
2022-09-25T16:28:22.550Z,15.49
2022-09-25T16:31:05.803Z,15.40
2022-09-25T16:33:40.131Z,15.33
2022-09-25T16:36:18.900Z,15.23
2022-09-25T16:39:12.193Z,15.11
2022-09-25T16:41:46.185Z,15.05
2022-09-25T16:44:32.699Z,15.01
2022-09-25T16:46:59.996Z,14.94
2022-09-25T16:49:27.307Z,14.89
2022-09-25T16:51:55.856Z,14.83
2022-09-25T16:54:30.791Z,14.81
2022-09-25T16:56:59.460Z,14.75
2022-09-25T16:59:28.482Z,14.72
2022-09-25T17:02:01.241Z,14.68
2022-09-25T17:04:31.161Z,14.61
2022-09-25T17:07:02.789Z,14.59
2022-09-25T17:09:31.425Z,14.53
2022-09-25T17:12:05.263Z,14.51
2022-09-25T17:14:32.502Z,14.50
2022-09-25T17:17:00.474Z,14.42
2022-09-25T17:19:27.987Z,14.32
2022-09-25T17:21:56.136Z,14.26
2022-09-25T17:24:26.701Z,14.26
2022-09-25T17:26:54.903Z,14.25
2022-09-25T17:29:22.777Z,14.15
2022-09-25T17:31:50.516Z,14.06
2022-09-25T17:34:24.641Z,13.98
2022-09-25T17:37:22.107Z,13.97
2022-09-25T17:40:00.950Z,13.91
2022-09-25T17:42:32.190Z,13.87
2022-09-25T17:45:03.332Z,13.84
2022-09-25T17:47:38.242Z,13.85
2022-09-25T17:50:09.012Z,13.88
2022-09-25T17:52:36.949Z,13.93
2022-09-25T17:55:13.828Z,13.82
2022-09-25T17:57:41.432Z,13.69
2022-09-25T18:00:17.839Z,13.67
2022-09-25T18:02:45.711Z,13.67
2022-09-25T18:05:20.310Z,13.66
2022-09-25T18:07:55.972Z,13.55
2022-09-25T18:10:24.113Z,13.50
2022-09-25T18:12:51.399Z,13.53
2022-09-25T18:15:18.848Z,13.42
2022-09-25T18:17:46.411Z,13.18
2022-09-25T18:20:40.706Z,13.08
2022-09-25T18:23:08.530Z,12.99
2022-09-25T18:25:39.118Z,12.85
2022-09-25T18:28:06.806Z,12.63
2022-09-25T18:30:35.047Z,12.52
2022-09-25T18:33:02.475Z,12.46
2022-09-25T18:35:29.632Z,12.45
2022-09-25T18:38:00.105Z,12.48
2022-09-25T18:40:27.425Z,12.56
2022-09-25T18:42:54.667Z,12.55
2022-09-25T18:45:22.117Z,12.52
2022-09-25T18:47:49.219Z,12.43
2022-09-25T18:50:20.541Z,12.44
2022-09-25T18:52:48.921Z,12.39
2022-09-25T18:55:17.127Z,12.51
2022-09-25T19:01:52.894Z,12.55
2022-09-25T19:04:20.879Z,12.49
2022-09-25T19:06:49.794Z,12.32
2022-09-25T19:09:17.700Z,12.26
2022-09-25T19:11:45.885Z,12.26
2022-09-25T19:14:15.033Z,12.20
2022-09-25T19:16:43.149Z,12.12
2022-09-25T19:19:12.459Z,12.20
2022-09-25T19:21:42.744Z,12.27
2022-09-25T19:24:09.942Z,12.34
2022-09-25T19:26:37.531Z,12.41
2022-09-25T19:29:07.708Z,12.47
2022-09-25T19:31:34.996Z,12.41
2022-09-25T19:34:02.884Z,12.32
2022-09-25T19:36:32.566Z,12.36
2022-09-25T19:39:00.833Z,12.37
2022-09-25T19:41:34.586Z,12.34
2022-09-25T19:44:12.873Z,12.33
2022-09-25T19:46:42.339Z,12.18
2022-09-25T19:49:11.197Z,12.15
2022-09-25T19:51:38.998Z,12.15
2022-09-25T19:54:07.877Z,12.17
2022-09-25T19:56:40.633Z,12.09
2022-09-25T19:59:12.607Z,12.00
2022-09-25T20:02:08.061Z,12.00
2022-09-25T20:04:37.146Z,12.06
2022-09-25T20:07:04.372Z,12.03
2022-09-25T20:09:34.799Z,11.90
2022-09-25T20:12:05.138Z,11.82
2022-09-25T20:14:32.305Z,11.83
2022-09-25T20:16:59.743Z,11.77
2022-09-25T20:19:27.479Z,11.71
2022-09-25T20:21:55.585Z,11.65
2022-09-25T20:24:23.922Z,11.64
2022-09-25T20:26:52.793Z,11.59
2022-09-25T20:29:20.081Z,11.52
2022-09-25T20:31:47.425Z,11.51
2022-09-25T20:34:20.055Z,11.54
2022-09-25T20:36:48.079Z,11.59
2022-09-25T20:39:20.463Z,11.60
2022-09-25T20:41:49.242Z,11.61
2022-09-25T20:44:16.667Z,11.61
2022-09-25T20:46:44.801Z,11.56
2022-09-25T20:49:13.306Z,11.49
2022-09-25T20:51:41.224Z,11.49
2022-09-25T20:54:09.835Z,11.42
2022-09-25T20:56:38.575Z,11.40
2022-09-25T20:59:06.069Z,11.40
2022-09-25T21:01:36.626Z,11.48
2022-09-25T21:04:07.974Z,11.51
2022-09-25T21:06:38.115Z,11.56
2022-09-25T21:09:20.574Z,11.58
2022-09-25T21:11:48.236Z,11.50
2022-09-25T21:14:24.468Z,11.53
2022-09-25T21:16:52.202Z,11.53
2022-09-25T21:19:21.178Z,11.45
2022-09-25T21:21:48.793Z,11.30
2022-09-25T21:24:18.657Z,11.24
2022-09-25T21:26:46.789Z,11.24
2022-09-25T21:29:16.084Z,11.18
2022-09-25T21:31:49.467Z,11.19
2022-09-25T21:34:19.141Z,11.21
2022-09-25T21:36:47.411Z,11.17
2022-09-25T21:39:15.437Z,11.19
2022-09-25T21:41:42.759Z,11.23
2022-09-25T21:44:13.485Z,11.26
2022-09-25T21:46:40.803Z,11.19
2022-09-25T21:49:08.888Z,11.13
2022-09-25T21:51:45.322Z,11.12
2022-09-25T21:54:14.035Z,11.29
2022-09-25T21:56:41.558Z,11.25
2022-09-25T21:59:09.604Z,11.26
2022-09-25T22:01:39.320Z,11.24
2022-09-25T22:04:10.331Z,11.26
2022-09-25T22:06:46.249Z,11.25
2022-09-25T22:09:17.048Z,11.25
2022-09-25T22:11:45.016Z,11.25
2022-09-25T22:14:16.038Z,11.28
2022-09-25T22:16:45.964Z,11.30
2022-09-25T22:19:19.524Z,11.33
2022-09-25T22:21:48.611Z,11.20
2022-09-25T22:24:16.625Z,11.19
2022-09-25T22:26:47.339Z,11.21
2022-09-25T22:29:15.684Z,11.18
2022-09-25T22:31:43.445Z,11.14
2022-09-25T22:34:15.907Z,11.19
2022-09-25T22:36:43.021Z,11.22
2022-09-25T22:39:13.695Z,11.22
2022-09-25T22:41:40.948Z,11.22
2022-09-25T22:44:08.342Z,11.21
2022-09-25T22:46:36.120Z,11.23
2022-09-25T22:49:03.830Z,11.23
2022-09-25T22:51:31.226Z,11.23
2022-09-25T22:53:58.354Z,11.22
2022-09-25T22:56:35.462Z,11.17
2022-09-25T22:59:08.585Z,11.19
2022-09-25T23:01:39.700Z,11.23
2022-09-25T23:04:10.562Z,11.24
2022-09-25T23:06:38.994Z,11.20
2022-09-25T23:09:12.297Z,11.21
2022-09-25T23:11:39.765Z,11.19
2022-09-25T23:14:11.189Z,11.16
2022-09-25T23:16:38.398Z,11.16
2022-09-25T23:19:05.643Z,11.11
2022-09-25T23:21:32.809Z,11.08
2022-09-25T23:24:02.738Z,11.07
2022-09-25T23:26:30.398Z,11.05
2022-09-25T23:28:58.470Z,11.02
2022-09-25T23:31:26.620Z,11.00
2022-09-25T23:33:53.766Z,10.97
2022-09-25T23:36:23.201Z,10.96
2022-09-25T23:38:52.070Z,10.97
2022-09-25T23:41:39.414Z,10.98
2022-09-25T23:44:09.141Z,11.06
2022-09-25T23:46:38.749Z,11.02
2022-09-25T23:49:06.757Z,11.01
2022-09-25T23:51:33.868Z,10.98
2022-09-25T23:54:02.113Z,11.04
2022-09-25T23:56:31.684Z,11.07
2022-09-25T23:59:01.294Z,11.10
